Time;durP1;ratioP1;P1;durP2;ratioP2;P2;SDS_P1;SDS_P2;PMS_P1;PMS_P2;Temp;Humidity;BMP_temperature;BMP_pressure;BME280_temperature;BME280_humidity;BME280_pressure;Samples;Min_cycle;Max_cycle;Signal;HPM_P1;HPM_P2
2022/04/17 00:00:10;;;;;;;0.13;0.13;;;;;;;9.03;61.88;102687.56;5120145;27;20032;-64
2022/04/17 00:02:36;;;;;;;0.35;0.30;;;;;;;9.08;61.32;102687.47;5102728;28;20396;-64
2022/04/17 00:05:03;;;;;;;0.70;0.35;;;;;;;9.02;61.40;102688.63;5106999;28;20027;-63
2022/04/17 00:07:29;;;;;;;0.20;0.20;;;;;;;8.94;61.76;102686.59;5106091;28;20062;-64
2022/04/17 00:09:55;;;;;;;0.30;0.30;;;;;;;8.99;61.44;102689.22;5094680;28;20497;-63
2022/04/17 00:12:23;;;;;;;0.10;0.10;;;;;;;8.93;61.70;102684.22;5106005;28;20043;-63
2022/04/17 00:14:49;;;;;;;0.30;0.30;;;;;;;8.90;61.56;102671.38;5107195;28;20707;-63
2022/04/17 00:17:14;;;;;;;0.20;0.20;;;;;;;8.75;64.00;102683.16;5106272;28;20066;-64
2022/04/17 00:19:40;;;;;;;0.10;0.10;;;;;;;8.68;63.88;102673.88;5109534;27;20073;-63
2022/04/17 00:22:05;;;;;;;0.20;0.20;;;;;;;8.65;64.39;102672.56;5126183;27;20088;-64
2022/04/17 00:24:31;;;;;;;0.20;0.20;;;;;;;8.67;63.81;102665.00;5126822;27;20042;-64
2022/04/17 00:26:59;;;;;;;0.20;0.20;;;;;;;8.60;64.33;102664.59;5113170;27;20020;-63
2022/04/17 00:29:25;;;;;;;0.20;0.20;;;;;;;8.59;64.73;102657.63;5100753;28;20101;-63
2022/04/17 00:31:51;;;;;;;0.38;0.38;;;;;;;8.50;65.00;102659.34;5106532;28;20032;-63
2022/04/17 00:34:16;;;;;;;0.10;0.10;;;;;;;8.48;65.43;102661.53;5106217;28;20363;-63
2022/04/17 00:36:42;;;;;;;0.63;0.63;;;;;;;8.47;64.55;102656.47;5105675;28;20567;-63
2022/04/17 00:39:07;;;;;;;0.20;0.20;;;;;;;8.43;64.40;102658.94;5088986;28;20040;-63
2022/04/17 00:41:32;;;;;;;0.28;0.28;;;;;;;8.44;64.73;102657.06;5085359;28;20399;-63
2022/04/17 00:43:58;;;;;;;0.10;0.10;;;;;;;8.40;65.25;102650.66;5087373;28;20023;-63
2022/04/17 00:46:23;;;;;;;0.20;0.20;;;;;;;8.38;65.59;102650.16;5105807;28;20035;-65
2022/04/17 00:48:49;;;;;;;0.20;0.20;;;;;;;8.24;66.60;102650.03;5103954;28;20069;-65
2022/04/17 00:51:15;;;;;;;0.30;0.30;;;;;;;8.26;66.71;102658.63;5105120;28;20027;-65
2022/04/17 00:53:44;;;;;;;0.20;0.20;;;;;;;8.27;67.51;102654.84;5103986;28;20031;-63
2022/04/17 00:56:10;;;;;;;0.13;0.13;;;;;;;8.23;66.58;102651.13;5105968;28;20102;-63
2022/04/17 00:58:37;;;;;;;0.10;0.10;;;;;;;8.16;66.17;102653.38;5095173;28;20573;-63
2022/04/17 01:01:02;;;;;;;0.32;0.32;;;;;;;8.12;66.65;102646.97;5103785;27;20031;-63
2022/04/17 01:03:28;;;;;;;0.35;0.35;;;;;;;8.16;66.36;102637.28;5126458;27;20100;-63
2022/04/17 01:05:53;;;;;;;0.10;0.10;;;;;;;8.13;66.49;102637.84;5125990;27;20512;-63
2022/04/17 01:08:20;;;;;;;0.20;0.20;;;;;;;8.12;67.07;102642.44;5125612;27;20085;-65
2022/04/17 01:10:46;;;;;;;0.30;0.30;;;;;;;8.09;67.17;102644.88;5087823;27;20036;-65
2022/04/17 01:13:12;;;;;;;0.10;0.10;;;;;;;8.06;67.41;102640.09;5084679;28;20032;-65
2022/04/17 01:15:37;;;;;;;0.30;0.30;;;;;;;8.06;67.55;102642.78;5085253;28;20036;-65
2022/04/17 01:18:04;;;;;;;0.50;0.50;;;;;;;7.99;68.15;102642.34;5084203;28;20122;-65
2022/04/17 01:20:30;;;;;;;0.30;0.30;;;;;;;7.92;67.72;102648.03;5084368;28;20082;-65
2022/04/17 01:26:56;;;;;;;0.20;0.20;;;;;;;7.89;68.31;102643.25;5084893;28;20279;-65
2022/04/17 01:28:27;;;;;;;0.25;0.25;;;;;;;7.85;69.24;102638.75;5121122;27;20039;-63
2022/04/17 01:30:53;;;;;;;0.20;0.20;;;;;;;7.89;68.28;102640.56;5125839;27;20023;-63
2022/04/17 01:33:19;;;;;;;0.10;0.10;;;;;;;7.70;68.16;102631.69;5116368;27;20534;-63
2022/04/17 01:35:44;;;;;;;0.32;0.32;;;;;;;7.74;68.50;102623.88;5117903;27;20677;-63
2022/04/17 01:38:10;;;;;;;0.10;0.10;;;;;;;7.70;69.24;102629.00;5101422;28;20051;-63
2022/04/17 01:40:35;;;;;;;0.50;0.50;;;;;;;7.68;68.87;102622.34;5105187;28;20547;-63
2022/04/17 01:43:01;;;;;;;0.20;0.20;;;;;;;7.63;68.88;102617.00;5105290;28;20039;-63
2022/04/17 01:45:26;;;;;;;0.30;0.30;;;;;;;7.58;69.67;102619.75;5098725;28;20032;-63
2022/04/17 01:47:51;;;;;;;0.10;0.10;;;;;;;7.49;70.25;102619.56;5084349;28;20044;-63
2022/04/17 01:50:17;;;;;;;0.30;0.30;;;;;;;7.52;70.14;102615.53;5084933;28;20077;-63
2022/04/17 01:52:43;;;;;;;0.55;0.38;;;;;;;7.53;70.08;102612.56;5084067;28;20048;-63
2022/04/17 01:55:09;;;;;;;0.20;0.20;;;;;;;7.47;69.89;102612.94;5100238;28;20118;-63
2022/04/17 01:57:34;;;;;;;0.10;0.10;;;;;;;7.44;70.61;102610.81;5099879;28;20114;-63
2022/04/17 02:00:00;;;;;;;0.20;0.20;;;;;;;7.41;71.00;102606.03;5098856;27;20439;-63
2022/04/17 02:02:25;;;;;;;0.20;0.20;;;;;;;7.34;71.38;102608.25;5104550;28;20047;-63
2022/04/17 02:04:51;;;;;;;0.10;0.10;;;;;;;7.30;71.14;102608.00;5104742;28;20202;-63
2022/04/17 02:07:16;;;;;;;0.17;0.17;;;;;;;7.29;71.46;102609.91;5098989;28;20024;-63
2022/04/17 02:09:42;;;;;;;0.20;0.20;;;;;;;7.25;70.85;102605.38;5101858;28;20055;-63
2022/04/17 02:12:07;;;;;;;0.17;0.17;;;;;;;7.22;71.65;102601.38;5103936;28;20069;-64
2022/04/17 02:14:33;;;;;;;0.20;0.20;;;;;;;7.12;71.63;102596.13;5104319;28;20132;-63
2022/04/17 02:16:58;;;;;;;0.35;0.35;;;;;;;7.05;70.92;102595.66;5089718;28;20399;-62
2022/04/17 02:19:23;;;;;;;0.10;0.10;;;;;;;6.97;70.72;102593.59;5084243;28;20046;-63
2022/04/17 02:21:49;;;;;;;0.20;0.20;;;;;;;6.90;71.26;102587.78;5082375;28;20032;-65
2022/04/17 02:24:14;;;;;;;0.20;0.20;;;;;;;6.97;70.30;102590.91;5083059;28;20040;-65
2022/04/17 02:26:40;;;;;;;0.20;0.20;;;;;;;6.87;70.94;102587.56;5083203;28;20035;-63
2022/04/17 02:29:05;;;;;;;0.75;0.75;;;;;;;6.76;72.00;102581.47;5096315;28;20557;-63
2022/04/17 02:31:31;;;;;;;0.45;0.45;;;;;;;6.73;72.79;102581.25;5116836;27;20076;-63
2022/04/17 02:33:57;;;;;;;0.10;0.10;;;;;;;6.82;71.42;102582.22;5104296;28;20123;-63
2022/04/17 02:36:23;;;;;;;0.10;0.10;;;;;;;6.78;71.47;102576.63;5104793;28;20031;-63
2022/04/17 02:38:49;;;;;;;0.55;0.55;;;;;;;6.65;72.39;102574.63;5103839;28;20253;-63
2022/04/17 02:41:14;;;;;;;0.20;0.20;;;;;;;6.59;73.02;102573.06;5108819;27;20490;-63
2022/04/17 02:43:39;;;;;;;0.30;0.30;;;;;;;6.59;73.75;102567.72;5104057;28;20478;-65
2022/04/17 02:46:05;;;;;;;0.30;0.30;;;;;;;6.58;73.38;102568.75;5095323;28;20039;-63
2022/04/17 02:48:31;;;;;;;0.30;0.30;;;;;;;6.55;73.10;102569.34;5083358;28;20358;-64
2022/04/17 02:50:57;;;;;;;0.47;0.47;;;;;;;6.47;72.93;102569.94;5083583;28;20053;-64
2022/04/17 02:53:24;;;;;;;0.20;0.20;;;;;;;6.35;74.53;102564.94;5088456;28;20031;-63
2022/04/17 02:55:50;;;;;;;0.20;0.20;;;;;;;6.30;74.84;102561.50;5103705;28;20103;-63
2022/04/17 02:58:16;;;;;;;0.10;0.10;;;;;;;6.29;75.40;102560.69;5103473;28;20421;-63
2022/04/17 03:06:11;;;;;;;0.20;0.20;;;;;;;6.34;74.09;102567.91;5102893;28;20061;-63
2022/04/17 03:08:42;;;;;;;0.32;0.32;;;;;;;6.33;73.90;102563.59;5109580;28;20034;-63
2022/04/17 03:11:08;;;;;;;0.20;0.20;;;;;;;6.34;74.41;102558.00;5109144;28;20035;-64
2022/04/17 03:13:34;;;;;;;0.10;0.10;;;;;;;6.31;74.47;102547.84;5109786;28;20119;-63
2022/04/17 03:16:00;;;;;;;0.43;0.43;;;;;;;6.16;74.81;102555.19;5106238;28;20197;-64
2022/04/17 03:18:26;;;;;;;0.28;0.28;;;;;;;6.20;74.42;102553.53;5107309;28;20073;-63
2022/04/17 03:20:51;;;;;;;0.20;0.20;;;;;;;6.19;74.27;102557.31;5098372;22;20035;-64
2022/04/17 03:23:17;;;;;;;0.88;0.85;;;;;;;6.12;75.23;102544.25;5053745;28;20032;-64
2022/04/17 03:25:43;;;;;;;0.20;0.20;;;;;;;6.00;76.14;102543.00;5062006;28;20044;-64
2022/04/17 03:28:09;;;;;;;0.20;0.20;;;;;;;5.89;76.66;102541.44;5066846;28;20075;-64
2022/04/17 03:30:34;;;;;;;0.30;0.30;;;;;;;5.89;76.43;102538.78;5057582;28;20343;-64
2022/04/17 03:33:01;;;;;;;9.20;0.57;;;;;;;5.87;77.00;102546.25;5057270;28;20040;-64
2022/04/17 03:35:26;;;;;;;0.10;0.10;;;;;;;5.85;77.24;102541.19;5062424;28;20089;-64
2022/04/17 03:37:53;;;;;;;0.28;0.28;;;;;;;5.84;77.55;102544.16;5056036;28;20033;-64
2022/04/17 03:40:19;;;;;;;0.20;0.20;;;;;;;5.83;77.50;102540.69;5070110;28;20109;-64
2022/04/17 03:42:44;;;;;;;0.10;0.10;;;;;;;5.88;77.12;102547.88;5072682;28;20036;-64
2022/04/17 03:45:17;;;;;;;0.20;0.20;;;;;;;5.85;77.49;102538.53;5060837;28;20108;-64
2022/04/17 03:47:43;;;;;;;0.20;0.20;;;;;;;5.76;77.05;102542.03;5056748;28;20033;-64
2022/04/17 03:50:10;;;;;;;0.10;0.10;;;;;;;5.72;77.55;102549.78;5071031;28;20083;-64
2022/04/17 03:52:42;;;;;;;0.20;0.20;;;;;;;5.60;77.45;102546.63;5080484;28;20498;-64
2022/04/17 03:55:08;;;;;;;0.10;0.10;;;;;;;5.62;77.96;102549.03;5055763;28;20043;-64
2022/04/17 03:57:34;;;;;;;0.40;0.40;;;;;;;5.59;77.65;102552.25;5054099;28;20444;-64
2022/04/17 04:00:01;;;;;;;0.10;0.10;;;;;;;5.49;77.90;102550.44;5054239;28;20040;-64
2022/04/17 04:02:37;;;;;;;0.25;0.25;;;;;;;5.44;78.03;102548.56;5067162;28;20040;-64
2022/04/17 04:05:02;;;;;;;0.20;0.20;;;;;;;5.48;77.51;102538.94;5063379;28;20032;-64
2022/04/17 04:07:28;;;;;;;0.10;0.10;;;;;;;5.45;78.42;102534.16;5071194;28;20043;-64
2022/04/17 04:09:53;;;;;;;0.40;0.40;;;;;;;5.41;78.54;102538.44;5072285;28;20170;-64
2022/04/17 04:12:19;;;;;;;0.10;0.10;;;;;;;5.43;77.92;102536.31;5065406;28;20037;-64
2022/04/17 04:14:44;;;;;;;0.20;0.20;;;;;;;5.41;78.17;102535.78;5051683;28;20045;-64
2022/04/17 04:17:10;;;;;;;0.20;0.20;;;;;;;5.45;77.97;102534.16;5062781;28;20047;-64
2022/04/17 04:19:36;;;;;;;0.10;0.10;;;;;;;5.42;78.62;102534.69;5070824;28;20059;-64
2022/04/17 04:22:02;;;;;;;0.20;0.20;;;;;;;5.39;78.77;102527.25;5071777;28;20183;-64
2022/04/17 04:24:27;;;;;;;0.20;0.20;;;;;;;5.41;79.21;102537.66;5064049;28;20048;-64
2022/04/17 04:29:37;;;;;;;0.10;0.10;;;;;;;5.39;79.22;102545.13;5051720;28;20099;-64
2022/04/17 04:32:03;;;;;;;0.20;0.20;;;;;;;5.41;79.23;102537.66;5065549;28;20032;-64
2022/04/17 04:34:29;;;;;;;1.30;1.20;;;;;;;5.40;79.00;102539.50;5053999;28;20693;-64
2022/04/17 04:36:55;;;;;;;0.20;0.20;;;;;;;5.41;78.78;102538.44;5069647;28;20070;-64
2022/04/17 04:39:20;;;;;;;0.10;0.10;;;;;;;5.33;79.36;102546.22;5071310;28;20036;-64
2022/04/17 04:41:46;;;;;;;0.20;0.20;;;;;;;5.32;79.22;102545.41;5062335;28;20036;-64
2022/04/17 04:44:12;;;;;;;0.13;0.13;;;;;;;5.29;79.01;102545.97;5062655;28;20419;-64
2022/04/17 04:46:38;;;;;;;0.38;0.38;;;;;;;5.32;79.21;102548.06;5068710;28;20017;-64
2022/04/17 04:51:47;;;;;;;0.35;0.35;;;;;;;5.35;79.00;102544.88;5056274;28;20032;-64
2022/04/17 04:54:13;;;;;;;0.10;0.10;;;;;;;5.32;78.69;102550.75;5051080;28;20572;-64
2022/04/17 04:56:39;;;;;;;0.20;0.20;;;;;;;5.27;79.50;102547.28;5049888;28;20386;-64
2022/04/17 04:59:05;;;;;;;0.30;0.30;;;;;;;5.26;79.98;102551.88;5078615;28;20036;-64
2022/04/17 05:01:30;;;;;;;0.10;0.10;;;;;;;5.31;79.88;102557.19;5065605;28;20071;-64
2022/04/17 05:03:55;;;;;;;0.10;0.10;;;;;;;5.35;79.60;102560.91;5070767;28;20036;-64
2022/04/17 05:06:21;;;;;;;0.20;0.20;;;;;;;5.35;80.13;102550.22;5070895;28;20040;-64
2022/04/17 05:08:46;;;;;;;0.10;0.10;;;;;;;5.36;80.33;102557.16;5069241;28;20036;-64
2022/04/17 05:11:12;;;;;;;0.10;0.10;;;;;;;5.43;79.72;102551.53;5050881;28;20513;-64
2022/04/17 05:13:38;;;;;;;0.32;0.32;;;;;;;5.46;79.36;102561.66;5050697;28;20044;-64
2022/04/17 05:16:04;;;;;;;0.32;0.32;;;;;;;5.45;80.54;102565.41;5056880;28;20394;-63
2022/04/17 05:18:30;;;;;;;0.20;0.20;;;;;;;5.47;80.55;102574.75;5090357;28;20016;-64
2022/04/17 05:20:56;;;;;;;0.10;0.10;;;;;;;5.49;80.58;102577.97;5090877;28;20089;-64
2022/04/17 05:23:29;;;;;;;0.35;0.35;;;;;;;5.52;80.94;102576.59;5090801;28;20036;-64
2022/04/17 05:26:03;;;;;;;0.20;0.20;;;;;;;5.50;81.04;102573.41;5071020;28;20070;-65
2022/04/17 05:28:29;;;;;;;0.20;0.20;;;;;;;5.45;81.63;102576.91;5069230;28;20036;-64
2022/04/17 05:30:55;;;;;;;0.32;0.32;;;;;;;5.52;81.96;102571.25;5067322;28;20044;-64
2022/04/17 05:33:21;;;;;;;0.35;0.35;;;;;;;5.59;81.32;102565.63;5070010;28;20036;-64
2022/04/17 05:35:48;;;;;;;0.10;0.10;;;;;;;5.66;81.23;102569.59;5070128;28;20602;-64
2022/04/17 05:38:14;;;;;;;0.35;0.35;;;;;;;5.70;81.27;102567.97;5066382;28;20111;-64
2022/04/17 05:40:49;;;;;;;0.10;0.10;;;;;;;5.82;80.94;102570.34;5049367;28;20155;-64
2022/04/17 05:43:15;;;;;;;0.20;0.20;;;;;;;5.93;81.25;102567.34;5050298;28;20045;-64
2022/04/17 05:45:41;;;;;;;0.10;0.10;;;;;;;6.03;81.29;102575.31;5049714;28;20029;-64
2022/04/17 05:48:09;;;;;;;0.52;0.52;;;;;;;6.15;80.32;102572.31;5050010;28;20380;-64
2022/04/17 05:50:36;;;;;;;0.10;0.10;;;;;;;6.28;80.48;102566.34;5050570;28;20221;-64
2022/04/17 05:53:02;;;;;;;0.28;0.28;;;;;;;6.49;80.02;102565.09;5050097;28;20041;-64
2022/04/17 05:55:28;;;;;;;0.13;0.13;;;;;;;6.76;79.05;102568.09;5064602;28;20033;-64
2022/04/17 05:57:54;;;;;;;0.20;0.20;;;;;;;6.93;77.61;102567.69;5057343;28;20376;-64
2022/04/17 06:00:19;;;;;;;0.65;0.60;;;;;;;7.05;76.76;102574.25;5070065;28;20082;-64
2022/04/17 06:02:46;;;;;;;1.00;0.80;;;;;;;7.11;77.13;102573.09;5073361;28;20032;-64
2022/04/17 06:05:13;;;;;;;0.13;0.13;;;;;;;7.15;76.87;102565.31;5069362;28;20031;-64
2022/04/17 06:07:40;;;;;;;0.10;0.10;;;;;;;7.30;76.71;102571.28;5068307;28;20060;-64
2022/04/17 06:10:10;;;;;;;0.20;0.20;;;;;;;7.47;75.17;102570.81;5069648;28;20043;-64
2022/04/17 06:12:37;;;;;;;0.50;0.50;;;;;;;7.70;74.03;102567.34;5061276;28;20437;-64
2022/04/17 06:15:05;;;;;;;0.15;0.15;;;;;;;7.99;70.75;102567.22;5069106;28;20067;-64
2022/04/17 06:17:39;;;;;;;0.35;0.30;;;;;;;8.03;68.33;102562.88;5061462;28;20335;-64
2022/04/17 06:20:10;;;;;;;0.10;0.10;;;;;;;8.00;67.51;102569.59;5068742;28;20041;-64
2022/04/17 06:22:36;;;;;;;0.28;0.28;;;;;;;8.04;65.71;102564.47;5068356;28;20036;-64
2022/04/17 06:25:09;;;;;;;0.13;0.13;;;;;;;8.13;64.48;102568.06;5067156;28;20116;-64
2022/04/17 06:28:01;;;;;;;0.13;0.13;;;;;;;8.50;62.54;102564.59;5069183;28;20063;-64
2022/04/17 06:30:27;;;;;;;0.73;0.73;;;;;;;8.75;61.17;102564.97;5045471;28;20099;-64
2022/04/17 06:32:52;;;;;;;0.50;0.50;;;;;;;8.82;60.29;102564.59;5049704;28;20037;-64
2022/04/17 06:35:18;;;;;;;0.10;0.10;;;;;;;8.98;60.53;102569.38;5058727;28;20036;-64
2022/04/17 06:38:15;;;;;;;0.20;0.20;;;;;;;9.18;58.98;102562.03;5068604;28;20067;-64
2022/04/17 06:40:41;;;;;;;0.10;0.10;;;;;;;9.29;57.98;102558.84;5061149;28;20045;-64
2022/04/17 06:43:08;;;;;;;0.10;0.10;;;;;;;9.35;57.63;102554.19;5057486;28;20047;-64
2022/04/17 06:45:39;;;;;;;0.10;0.10;;;;;;;9.55;56.09;102551.09;5048174;28;20039;-64
2022/04/17 06:48:16;;;;;;;0.23;0.23;;;;;;;9.67;56.25;102554.88;5049713;28;20463;-64
2022/04/17 06:50:43;;;;;;;0.13;0.13;;;;;;;9.75;55.39;102554.16;5057961;28;20391;-63
2022/04/17 06:53:08;;;;;;;0.10;0.10;;;;;;;9.85;54.19;102555.84;5068121;28;20547;-64
2022/04/17 06:55:34;;;;;;;0.10;0.10;;;;;;;9.97;55.00;102548.81;5068106;28;20099;-64
2022/04/17 06:57:59;;;;;;;0.17;0.17;;;;;;;10.21;53.37;102548.56;5067940;28;20411;-64
2022/04/17 07:00:25;;;;;;;0.65;0.32;;;;;;;10.29;54.25;102553.25;5065533;28;20036;-64
2022/04/17 07:02:50;;;;;;;0.10;0.10;;;;;;;10.43;51.15;102556.66;5061603;28;20127;-64
2022/04/17 07:05:16;;;;;;;0.10;0.10;;;;;;;10.37;50.84;102549.81;5066057;28;20024;-64
2022/04/17 07:07:42;;;;;;;0.10;0.10;;;;;;;10.57;50.18;102552.00;5068804;28;20041;-64
2022/04/17 07:10:09;;;;;;;0.10;0.10;;;;;;;10.60;50.14;102550.59;5065495;28;20123;-64
2022/04/17 07:12:35;;;;;;;0.10;0.10;;;;;;;10.78;49.25;102546.91;5066737;28;20044;-64
2022/04/17 07:15:02;;;;;;;0.73;0.68;;;;;;;10.71;49.59;102547.34;5070959;28;20036;-65
2022/04/17 07:17:37;;;;;;;0.10;0.10;;;;;;;10.84;49.03;102545.63;5064499;28;20069;-65
2022/04/17 07:20:07;;;;;;;0.20;0.20;;;;;;;10.88;48.90;102541.22;5071720;28;20025;-64
2022/04/17 07:22:34;;;;;;;0.10;0.10;;;;;;;10.99;49.00;102539.88;5072835;28;20033;-64
2022/04/17 07:25:01;;;;;;;0.15;0.15;;;;;;;11.16;48.08;102537.25;5068719;28;20021;-65
2022/04/17 07:27:27;;;;;;;0.10;0.10;;;;;;;11.26;49.00;102538.84;5071729;28;20043;-65
2022/04/17 07:29:53;;;;;;;0.10;0.10;;;;;;;11.49;47.13;102535.75;5072751;28;20048;-65
2022/04/17 07:32:19;;;;;;;0.17;0.17;;;;;;;11.55;47.77;102541.81;5072596;28;20028;-65
2022/04/17 07:34:45;;;;;;;1.98;0.30;;;;;;;11.54;48.10;102538.28;5070695;28;20129;-65
2022/04/17 07:37:10;;;;;;;0.20;0.20;;;;;;;11.75;48.49;102528.50;5072231;28;20052;-65
2022/04/17 07:39:36;;;;;;;0.10;0.10;;;;;;;11.94;47.53;102535.53;5072489;28;20071;-65
2022/04/17 07:42:01;;;;;;;0.10;0.10;;;;;;;12.08;45.49;102538.88;5072399;28;20032;-65
2022/04/17 07:44:29;;;;;;;0.30;0.30;;;;;;;12.15;45.63;102523.78;5057261;28;20095;-65
2022/04/17 07:46:55;;;;;;;0.10;0.10;;;;;;;12.13;45.49;102527.91;5052144;28;20045;-65
2022/04/17 07:49:21;;;;;;;0.10;0.10;;;;;;;12.21;44.34;102535.22;5052457;28;20044;-65
2022/04/17 07:51:46;;;;;;;0.00;0.00;;;;;;;12.41;43.89;102529.13;5052433;28;20037;-66
2022/04/17 07:54:12;;;;;;;0.10;0.10;;;;;;;12.55;42.66;102530.56;5063173;28;20033;-66
2022/04/17 07:56:37;;;;;;;0.10;0.10;;;;;;;12.49;43.54;102525.63;5071510;28;20044;-65
2022/04/17 07:59:04;;;;;;;0.00;0.00;;;;;;;12.51;44.89;102524.19;5067377;28;20024;-65
2022/04/17 08:01:33;;;;;;;0.10;0.10;;;;;;;12.69;42.20;102519.53;5067924;28;20066;-65
2022/04/17 08:03:58;;;;;;;0.00;0.00;;;;;;;12.95;40.39;102524.88;5071847;28;20101;-65
2022/04/17 08:06:24;;;;;;;0.10;0.10;;;;;;;13.13;40.46;102518.28;5070344;28;20090;-65
2022/04/17 08:08:51;;;;;;;0.03;0.03;;;;;;;13.17;38.42;102528.13;5069088;28;20029;-66
2022/04/17 08:11:17;;;;;;;0.13;0.13;;;;;;;13.10;38.29;102524.34;5057477;28;20044;-65
2022/04/17 08:13:45;;;;;;;0.10;0.10;;;;;;;13.28;39.62;102505.00;5051855;28;20033;-65
2022/04/17 08:16:10;;;;;;;0.57;0.57;;;;;;;13.35;37.31;102524.22;5049694;28;20032;-66
2022/04/17 08:18:36;;;;;;;0.00;0.00;;;;;;;13.35;38.52;102508.00;5069711;28;20036;-66
2022/04/17 08:21:03;;;;;;;0.00;0.00;;;;;;;13.51;38.08;102511.69;5070728;28;20037;-65
2022/04/17 08:23:29;;;;;;;0.10;0.10;;;;;;;13.80;38.73;102520.91;5071333;28;20103;-65
2022/04/17 08:25:54;;;;;;;0.00;0.00;;;;;;;13.92;38.96;102520.97;5057758;28;20095;-65
2022/04/17 08:28:20;;;;;;;0.10;0.10;;;;;;;14.19;39.84;102506.84;5051374;28;20045;-65
2022/04/17 08:30:45;;;;;;;0.00;0.00;;;;;;;14.40;38.39;102507.66;5051869;28;20064;-65
2022/04/17 08:33:11;;;;;;;0.00;0.00;;;;;;;14.29;38.23;102501.06;5050850;28;20037;-66
2022/04/17 08:35:36;;;;;;;0.00;0.00;;;;;;;14.36;37.98;102501.31;5051821;28;20115;-65
2022/04/17 08:38:05;;;;;;;0.00;0.00;;;;;;;14.39;38.61;102501.44;5050647;28;20120;-65
2022/04/17 08:40:31;;;;;;;0.10;0.10;;;;;;;14.50;39.22;102501.03;5050803;28;20033;-65
2022/04/17 08:42:59;;;;;;;0.00;0.00;;;;;;;14.57;39.19;102501.25;5051346;28;20040;-65
2022/04/17 08:45:25;;;;;;;0.00;0.00;;;;;;;14.62;39.63;102503.75;5049428;28;20297;-65
2022/04/17 08:47:51;;;;;;;0.00;0.00;;;;;;;14.80;39.93;102491.56;5065278;28;20483;-65
2022/04/17 08:50:19;;;;;;;0.25;0.25;;;;;;;15.07;39.13;102496.34;5070160;28;20162;-65
2022/04/17 08:52:46;;;;;;;0.10;0.10;;;;;;;15.24;38.01;102498.81;5069681;28;20051;-65
2022/04/17 08:55:12;;;;;;;0.20;0.20;;;;;;;15.25;37.84;102495.75;5070985;28;20108;-65
2022/04/17 08:57:38;;;;;;;0.00;0.00;;;;;;;15.34;38.94;102496.44;5060348;28;20036;-65
2022/04/17 09:00:05;;;;;;;0.00;0.00;;;;;;;15.36;36.77;102493.38;5069336;28;20039;-65
2022/04/17 09:02:31;;;;;;;0.10;0.10;;;;;;;15.50;37.44;102491.13;5070850;28;20060;-65
2022/04/17 09:04:56;;;;;;;0.00;0.00;;;;;;;15.75;38.75;102492.66;5060214;28;20522;-65
2022/04/17 09:07:22;;;;;;;0.00;0.00;;;;;;;15.62;38.43;102484.88;5070055;28;20036;-65
2022/04/17 09:09:52;;;;;;;0.10;0.10;;;;;;;15.74;38.65;102480.19;5070756;28;20116;-65
2022/04/17 09:12:19;;;;;;;0.00;0.00;;;;;;;15.97;39.04;102475.81;5070670;28;20086;-65
2022/04/17 09:14:45;;;;;;;0.05;0.05;;;;;;;16.13;37.13;102471.19;5059382;28;20091;-65
2022/04/17 09:17:11;;;;;;;0.00;0.00;;;;;;;16.10;38.56;102471.88;5064614;28;20070;-65
2022/04/17 09:19:37;;;;;;;0.00;0.00;;;;;;;16.37;38.57;102474.94;5069994;28;20036;-65
2022/04/17 09:22:05;;;;;;;0.00;0.00;;;;;;;16.27;38.47;102468.88;5106796;22;20044;-68
2022/04/17 09:24:35;;;;;;;0.00;0.00;;;;;;;16.54;38.65;102471.91;5089988;28;20048;-68
2022/04/17 09:27:00;;;;;;;0.00;0.00;;;;;;;16.78;37.29;102475.25;5104534;28;20043;-68
2022/04/17 09:29:35;;;;;;;0.20;0.20;;;;;;;16.76;36.94;102465.88;5112398;28;20373;-68
2022/04/17 09:32:01;;;;;;;0.20;0.20;;;;;;;16.74;37.52;102457.25;5112151;28;20032;-69
2022/04/17 09:34:27;;;;;;;0.20;0.20;;;;;;;16.71;37.82;102458.75;5090418;28;20514;-67
2022/04/17 09:36:59;;;;;;;0.00;0.00;;;;;;;16.84;35.92;102441.19;5070142;28;20124;-68
2022/04/17 09:39:33;;;;;;;0.00;0.00;;;;;;;17.03;35.88;102446.69;5053648;28;20040;-67
2022/04/17 09:42:01;;;;;;;0.20;0.20;;;;;;;16.99;35.78;102448.53;5071412;28;20534;-68
2022/04/17 09:44:46;;;;;;;0.30;0.30;;;;;;;17.12;36.53;102438.31;5071717;28;20400;-68
2022/04/17 09:47:20;;;;;;;0.00;0.00;;;;;;;17.32;35.68;102436.44;5070551;28;20044;-68
2022/04/17 09:50:03;;;;;;;0.10;0.10;;;;;;;17.54;35.91;102436.56;5071336;28;20032;-68
2022/04/17 09:52:48;;;;;;;0.00;0.00;;;;;;;17.68;36.10;102436.84;5071065;28;20043;-68
2022/04/17 09:55:26;;;;;;;0.00;0.00;;;;;;;17.81;34.93;102430.09;5058389;28;20115;-68
2022/04/17 09:57:57;;;;;;;0.00;0.00;;;;;;;17.86;36.53;102427.09;5083942;28;20047;-68
2022/04/17 10:00:23;;;;;;;0.00;0.00;;;;;;;17.94;36.19;102426.06;5082180;28;20040;-68
2022/04/17 10:02:49;;;;;;;0.03;0.03;;;;;;;17.99;35.47;102433.97;5071958;28;20034;-68
2022/04/17 10:05:17;;;;;;;0.10;0.10;;;;;;;18.01;34.68;102428.13;5090780;28;20097;-68
2022/04/17 10:07:45;;;;;;;0.00;0.00;;;;;;;17.87;35.24;102419.69;5087537;28;20040;-68
2022/04/17 10:10:12;;;;;;;0.00;0.00;;;;;;;17.65;34.98;102404.06;5059610;28;20036;-68
2022/04/17 10:12:45;;;;;;;0.03;0.00;;;;;;;17.68;35.18;102395.97;5068370;28;20023;-68
2022/04/17 10:15:11;;;;;;;0.00;0.00;;;;;;;17.84;34.17;102393.94;5090798;28;20072;-68
2022/04/17 10:17:44;;;;;;;0.00;0.00;;;;;;;18.27;33.49;102386.53;5088195;28;20136;-68
2022/04/17 10:20:12;;;;;;;0.00;0.00;;;;;;;18.10;33.50;102384.28;5081708;28;20072;-68
2022/04/17 10:22:40;;;;;;;0.00;0.00;;;;;;;18.27;31.36;102386.53;5090711;28;20032;-68
2022/04/17 10:25:08;;;;;;;0.00;0.00;;;;;;;18.02;32.32;102369.75;5070371;28;20078;-69
2022/04/17 10:27:36;;;;;;;0.00;0.00;;;;;;;18.06;32.59;102372.53;5082680;28;20071;-68
2022/04/17 10:30:06;;;;;;;0.00;0.00;;;;;;;18.25;32.04;102367.81;5053357;28;20047;-69
2022/04/17 10:32:38;;;;;;;0.00;0.00;;;;;;;18.10;32.12;102371.41;5070434;28;20111;-69
2022/04/17 10:35:32;;;;;;;0.00;0.00;;;;;;;18.23;32.11;102363.84;5054503;28;20032;-69
2022/04/17 10:38:42;;;;;;;0.00;0.00;;;;;;;18.60;32.42;102356.69;5070283;28;20564;-69
2022/04/17 10:41:10;;;;;;;0.00;0.00;;;;;;;18.73;30.88;102350.66;5038142;28;20067;-68
2022/04/17 10:43:47;;;;;;;0.00;0.00;;;;;;;18.54;31.31;102355.44;5080700;28;20032;-68
2022/04/17 10:46:14;;;;;;;0.00;0.00;;;;;;;18.66;31.92;102345.06;5094373;28;20032;-68
2022/04/17 10:48:57;;;;;;;0.00;0.00;;;;;;;18.58;32.07;102340.66;5076039;28;20028;-68
2022/04/17 10:51:26;;;;;;;0.00;0.00;;;;;;;19.05;32.32;102339.38;5083926;28;20036;-68
2022/04/17 10:54:05;;;;;;;0.00;0.00;;;;;;;19.28;31.57;102343.56;5085116;28;20039;-67
2022/04/17 10:56:36;;;;;;;0.00;0.00;;;;;;;19.09;32.13;102353.84;5088310;28;20051;-67
2022/04/17 10:59:15;;;;;;;0.00;0.00;;;;;;;19.10;31.46;102336.31;5084836;28;20036;-68
2022/04/17 11:01:44;;;;;;;0.00;0.00;;;;;;;18.98;32.23;102334.59;5058422;28;20044;-68
2022/04/17 11:04:30;;;;;;;0.00;0.00;;;;;;;19.19;32.65;102323.94;5073965;28;20044;-68
2022/04/17 11:07:04;;;;;;;1.38;1.15;;;;;;;19.27;31.12;102328.34;5055566;28;20040;-68
2022/04/17 11:09:35;;;;;;;0.00;0.00;;;;;;;19.47;30.83;102329.75;5073952;28;20032;-67
2022/04/17 11:12:10;;;;;;;0.10;0.10;;;;;;;19.64;30.53;102318.25;5074150;28;20048;-68
2022/04/17 11:14:35;;;;;;;0.10;0.03;;;;;;;19.59;29.86;102326.75;5074022;28;20028;-67
2022/04/17 11:17:11;;;;;;;0.00;0.00;;;;;;;19.86;29.03;102316.47;5055469;28;20437;-67
2022/04/17 11:19:40;;;;;;;0.10;0.10;;;;;;;19.85;30.46;102327.78;5073677;28;20048;-68
2022/04/17 11:22:07;;;;;;;0.00;0.00;;;;;;;19.98;30.17;102326.34;5072936;28;20075;-66
2022/04/17 11:24:54;;;;;;;0.00;0.00;;;;;;;19.96;30.19;102317.72;5069994;28;20442;-68
2022/04/17 11:27:32;;;;;;;0.00;0.00;;;;;;;20.16;30.80;102314.41;5053984;28;20082;-67
2022/04/17 11:29:59;;;;;;;0.00;0.00;;;;;;;20.32;30.35;102309.50;5081448;28;20059;-67
2022/04/17 11:32:27;;;;;;;0.00;0.00;;;;;;;20.21;29.78;102292.19;5087815;28;20035;-67
2022/04/17 11:34:54;;;;;;;0.00;0.00;;;;;;;20.27;30.57;102289.88;5093602;28;20480;-68
2022/04/17 11:37:25;;;;;;;0.00;0.00;;;;;;;20.65;29.83;102294.84;5086298;28;20032;-67
2022/04/17 11:39:52;;;;;;;0.00;0.00;;;;;;;20.50;29.88;102287.69;5072996;28;20112;-67
2022/04/17 11:42:18;;;;;;;0.00;0.00;;;;;;;20.72;28.88;102272.94;5073777;28;20075;-66
2022/04/17 11:44:45;;;;;;;0.00;0.00;;;;;;;20.59;28.54;102279.94;5073184;28;20040;-66